Timeline UpdatesTrip UpdatesNews PostsPvt PostsTravel TipsAdmin PostsConv PostsFollowed PostsChat RequestsBlog PostsPNR Posts

Disclaimer
Search
 
 
Thu Apr 24, 2014 14:04:19 ISTHomeTrainsΣChainsAtlasPNRForumGalleryNewsFAQTripsMembersLoginFeedback
No Recent News for this Train
Other Trains in the News **new
Latest...
15210 Amritsar-Saharsa Janseva Express & 12318 Amritsar-Sealdah Akal Takhat Express trains of today i.e. 18.06.2013 will be diverted to run via Dudia, Ghaziabad-Moradabad.
Tue Jun 18, 2013 (01:35PM)
⇐ Return Journey: Train# 15209

15210/Amritsar Saharsa Jan Seva Express (UnReserved)

Jan 02 2014 (12:17AM)
Change Departure Station:
Change Arrival Station:
Post a Train Travel TipPost a Train Travel Tip **new
Post a Comment/Question/Picture/VideoPost a Comment/Question/Picture/Video
Inaugural Run
Fri Dec 11, 2009
Pantry/Catering
✕ NO Pantry Car
✕ NO Catering
RSA - Rake Sharing
RSA with 15275/76...shc bju express
Rake/Coach Composition
LOCO-SLR-GEN-GEN-GEN-GEN-GEN-GEN-GEN-GEN-GEN-GEN-GEN-GEN-GEN-GEN-GEN-GEN-GEN-GEN-GEN-GEN-SLR
Loco
WAP 5#GZB[ASR-MB] WDM 3A#GONDA [MB-SHC]
News    PNR    Forum    Time-Table    Availability    Fare Chart    Map    Arr/Dep History    Trips    Gallery    ΣChains    X/O    Timeline    
Travel Time: 7h 28m    11 halts    Distance: 383 km    Avg Speed: 51 km/hr
Type: Mail/Express
Zone: ECR/East Central
Departs @ 06:35 (Avg 2m late)
Platform# 2
SMTWTFS
Amritsar Junction/ASR 
Arrives @ 14:03 (Avg 9m late)
Platform# 3
SMTWTFS
Laksar Junction/LRJ 

11 halts. 60 intermediate Stations between Amritsar Junction and Laksar Junction

Show ALL intermediate Stations  Show Old Time-Table

#CodeStation NameX/OArrivesAvgDepartsAvgHaltPFDay#KmSpeedElevZoneAddress
1ASR»Amritsar Junction (5)»  -06:35+2210.092233mNRAmritsar 143002, Punjab
2BEASBeas Junction (2)X  07:03+1207:05+122m2143.066238mNRBeas, Punjab
3JUCJalandhar City Junction (5)X  07:38+707:43+95m2179.160239mNRJalandhar 144001, Punjab
4PGWPhagwara Junction (3)X  08:04+1608:06+162m11100.371245mNRPhagwara, Punjab
5PHRPhillaur Junction (3)  08:25+2608:27+252m11122.821246mNRPhillaur, Punjab
6LDHLudhiana Junction (7)XO  09:05+1009:15+1310m31135.922246mNRLudhiana 141001, Punjab
7DDLDhandari Kalan (3)  09:35+709:37+72m21143.467254mNRDhandari Kalan, Punjab
8SIRSirhind Junction (3)X  10:25+310:28+43m21196.788271mNRSirhind, Punjab
9RPJRajpura Junction (3)  10:45+1010:47+102m21221.544272mNRNH-1, Punjab
10UMBAmbala Cantt. Junction (7)  11:25+411:35+410m11249.681278mNRAmbala 133001, Haryana
11JUDYamunanagar-Jagadhri (3)X  12:13+912:15+102m11300.640275mNRYamunanagar, Haryana
12SRESaharanpur Junction (6)  13:00+013:10+010m31330.759276mNRSaharanpur, Uttar Pradesh
13LRJ•Laksar Junction (4)•  14:03+914:05+102m31383.272238mNRLaksar, Uttarakhand
14NBDNajibabad Junction (3)X  14:40+1214:43+123m11425.165269mNRNajibabad, Uttar Pradesh
15MBMoradabad Junction (7)XO16:15+1416:45+1530m41524.053201mNRMoradabad, Uttar Pradesh
16RMURampur Junction (3)  17:16+1817:18+192m--1551.371190mNRRampur, Uttar Pradesh
17BEBareilly Junction (4)X  18:11+2518:16+265m11614.467174mNRBareilly, Uttar Pradesh
18MINJMaikalGanj20:03+3520:04+351m--1733.438149mNRNational Highway 24, Uttar Pradesh
19SCCSitapur Cantt. (2)X  21:10+2321:20+2610m--1774.965141mNRSitapur, Uttar Pradesh
20BUWBurhwal Junction (3)X  22:50+4522:55+465m--1872.444119mNERBarabanki, Uttar Pradesh
21GDGonda Junction (3)X  00:20+3700:35+4415m22934.771110mNERGonda 271001, Uttar Pradesh
22BSTBasti (4)X  01:50+3601:55+395m--21023.14590mNERBasti 272001, Uttar Pradesh
23GKPGorakhpur Junction (10)  03:20+2403:35+2615m--21086.56684mNERGorakhpur 273001, Uttar Pradesh
24DEOSDeoria Sadar (3)X  04:20+5004:25+515m--21135.73679mNERDeoria- 274001, Uttar Pradesh
25BTTBhatni Junction (5)  05:00+4105:05+445m--21156.49173mNERDeoria, Uttar Pradesh
26MWMairwa (2)  05:23+5205:25+522m--21183.98573mNERMairwa, Bihar
27SVSiwan Junction (4)X  05:40+5805:45+585m--21205.27170mNERSiwan, Bihar
28DDADuraundha Junction (3)X  06:00+1:0106:02+1:012m--21223.04464mNERDistt: Siwan, Bihar
29EKMAEkma (3)  06:23+5506:25+552m--21238.52864mNERSaran, Bihar
30CPRChhapra Junction (6)  07:25+3207:45+3320m--21266.46258mNERDistt: Saran, Bihar
31DGADighwara (2)  08:15+4608:17+462m--21297.34560mECR06158-281240, Bihar
32SEESonpur Junction (4)  08:48+4508:54+566m--21320.43056mECRSaran, Bihar
33HJPHajipur Junction (3)  09:05+5809:10+595m--21325.95255mECR06224-272230, Bihar
34AYRNAkshaywat Rai Nagar  09:22+1:0409:24+1:052m--21336.45152mECRVaishali, Bihar
35DESDesari  09:35+1:0809:37+1:092m--21345.86749mECRVaishali, Bihar
36MNOMehnar Road  09:46+1:1309:48+1:132m--21355.83654mECRMehnar Road, Bihar
37SPPShahpur Patoree  10:01+1:1010:03+1:152m--21363.77750mECRSamastipur, Bihar
38MOGMohiuddinnagar  10:13+1:2310:15+1:242m--21376.62152mECRSamastipur, Bihar
39BCABachwara JunctionX  11:14+5811:16+1:012m--21397.22946mECRBegusarai, Bihar
40BJUBarauni Junction (9)  11:50+1:0412:00+1:0310m321413.650 ECRBegusarai, Bihar
41BGSBegu Sarai (2)  12:16+1:0812:18+1:082m--21427.053 ECRBegusarai, Bihar
42LKNLakhminia  12:38+1:0712:40+1:072m--21444.82845mECRBegusarai, Bihar
43KGGKhagaria Junction (3)X  13:28+4913:30+512m221466.93343mECRKhagaria, Bihar
44MNEMansi Junction (3)  13:46+4913:48+502m221475.73443mECRMansi, Bihar
45KFAKoparia (1)X  14:21+5614:23+572m121494.62842mECRBihar, Bihar
46SBVSimri Bakhtiyarpur (1)  14:37+5314:39+552m121501.22042mECRBakhtiarpur, Bihar
47SHCSaharsa Junction (3)  15:30+38-121518.2-46mECRSaharsa, Bihar
Scroll to Top
Scroll to Bottom